createdAt,value
2022-09-21T00:01:25.674Z,21.40
2022-09-21T00:04:04.695Z,21.40
2022-09-21T00:06:40.759Z,21.40
2022-09-21T00:09:14.953Z,21.50
2022-09-21T00:11:53.239Z,21.60
2022-09-21T00:14:29.815Z,21.70
2022-09-21T00:17:04.972Z,21.70
2022-09-21T00:19:44.221Z,21.70
2022-09-21T00:22:19.283Z,21.90
2022-09-21T00:24:53.666Z,21.80
2022-09-21T00:27:31.415Z,21.80
2022-09-21T00:30:08.351Z,22.00
2022-09-21T00:32:44.441Z,21.80
2022-09-21T00:35:22.108Z,21.90
2022-09-21T00:37:57.694Z,22.00
2022-09-21T00:40:32.890Z,22.10
2022-09-21T00:43:21.339Z,21.90
2022-09-21T00:46:02.221Z,21.90
2022-09-21T00:48:38.160Z,22.10
2022-09-21T00:51:14.976Z,22.20
2022-09-21T00:53:50.143Z,22.30
2022-09-21T00:56:25.168Z,22.20
2022-09-21T00:59:01.442Z,22.20
2022-09-21T01:01:36.272Z,22.20
2022-09-21T01:04:12.005Z,22.10
2022-09-21T01:06:49.663Z,22.20
2022-09-21T01:09:24.651Z,22.50
2022-09-21T01:12:15.598Z,22.70
2022-09-21T01:15:21.385Z,22.80
2022-09-21T01:18:04.166Z,22.90
2022-09-21T01:21:02.715Z,22.90
2022-09-21T01:23:55.467Z,23.00
2022-09-21T01:26:51.538Z,23.00
2022-09-21T01:29:33.604Z,22.60
2022-09-21T01:32:18.012Z,22.60
2022-09-21T01:34:57.121Z,22.80
2022-09-21T01:37:38.043Z,23.00
2022-09-21T01:40:21.065Z,23.20
2022-09-21T01:42:58.650Z,23.10
2022-09-21T01:45:39.643Z,23.20
2022-09-21T01:48:16.229Z,23.30
2022-09-21T01:50:55.233Z,23.40
2022-09-21T01:53:32.972Z,23.40
2022-09-21T01:56:15.306Z,23.50
2022-09-21T01:58:57.124Z,23.60
2022-09-21T02:01:46.094Z,23.70
2022-09-21T02:04:21.945Z,23.80
2022-09-21T02:07:02.160Z,24.00
2022-09-21T02:09:43.257Z,24.00
2022-09-21T02:12:19.310Z,24.10
2022-09-21T02:14:57.653Z,24.20
2022-09-21T02:17:42.457Z,24.70
2022-09-21T02:20:26.568Z,25.30
2022-09-21T02:23:10.934Z,25.40
2022-09-21T02:25:52.984Z,25.30
2022-09-21T02:28:40.289Z,25.30
2022-09-21T02:31:24.330Z,25.30
2022-09-21T02:34:06.196Z,25.80
2022-09-21T02:36:50.331Z,26.20
2022-09-21T02:39:28.283Z,26.30
2022-09-21T02:42:12.024Z,26.20
2022-09-21T02:44:57.583Z,25.70
2022-09-21T02:47:38.935Z,26.10
2022-09-21T02:50:22.838Z,26.20
2022-09-21T02:53:04.250Z,25.90
2022-09-21T02:55:43.241Z,25.90
2022-09-21T02:58:21.279Z,25.80
2022-09-21T03:00:58.344Z,25.70
2022-09-21T03:03:34.412Z,25.50
2022-09-21T03:06:15.186Z,25.70
2022-09-21T03:08:50.551Z,25.70
2022-09-21T03:11:26.193Z,25.60
2022-09-21T03:14:06.814Z,25.40
2022-09-21T03:16:42.682Z,25.70
2022-09-21T03:19:17.598Z,25.70
2022-09-21T03:21:53.582Z,25.70
2022-09-21T03:24:48.432Z,25.50
2022-09-21T03:27:24.560Z,25.40
2022-09-21T03:30:02.172Z,25.40
2022-09-21T03:32:40.374Z,25.50
2022-09-21T03:35:15.149Z,25.50
2022-09-21T03:37:52.919Z,25.50
2022-09-21T03:40:29.349Z,25.70
2022-09-21T03:43:04.634Z,25.80
2022-09-21T03:45:42.388Z,25.90
2022-09-21T03:48:18.367Z,26.00
2022-09-21T03:50:59.118Z,26.30
2022-09-21T03:53:37.808Z,26.40
2022-09-21T03:56:12.572Z,26.20
2022-09-21T03:58:54.333Z,26.30
2022-09-21T04:01:29.710Z,26.40
2022-09-21T04:04:04.591Z,26.30
2022-09-21T04:06:39.818Z,26.20
2022-09-21T04:09:18.318Z,26.50
2022-09-21T04:11:56.478Z,26.00
2022-09-21T04:14:32.478Z,25.90
2022-09-21T04:17:09.807Z,26.00
2022-09-21T04:19:46.372Z,26.10
2022-09-21T04:22:21.388Z,26.20
2022-09-21T04:24:59.864Z,26.20
2022-09-21T04:27:37.453Z,26.20
2022-09-21T04:30:16.988Z,26.20
2022-09-21T04:33:01.846Z,26.20
2022-09-21T04:35:36.743Z,26.40
2022-09-21T04:38:17.585Z,26.40
2022-09-21T04:41:01.667Z,26.40
2022-09-21T04:43:36.557Z,26.30
2022-09-21T04:46:19.670Z,26.90
2022-09-21T04:48:55.012Z,27.20
2022-09-21T04:51:31.345Z,27.10
2022-09-21T04:54:19.282Z,27.40
2022-09-21T04:57:04.929Z,27.50
2022-09-21T04:59:45.874Z,27.30
2022-09-21T05:02:34.838Z,27.00
2022-09-21T05:05:18.832Z,26.60
2022-09-21T05:08:04.344Z,26.30
2022-09-21T05:10:45.931Z,26.60
2022-09-21T05:13:25.294Z,27.00
2022-09-21T05:16:03.148Z,26.80
2022-09-21T05:18:42.524Z,26.40
2022-09-21T05:21:23.598Z,26.00
2022-09-21T05:24:00.929Z,25.90
2022-09-21T05:26:39.522Z,25.90
2022-09-21T05:29:17.942Z,25.90
2022-09-21T05:31:56.739Z,25.90
2022-09-21T05:34:45.502Z,25.60
2022-09-21T05:37:44.499Z,25.40
2022-09-21T05:40:24.723Z,25.60
2022-09-21T05:43:10.838Z,25.60
2022-09-21T05:45:54.537Z,25.10
2022-09-21T05:48:32.283Z,25.50
2022-09-21T05:51:13.865Z,25.90
2022-09-21T05:54:01.026Z,25.90
2022-09-21T05:56:49.059Z,26.10
2022-09-21T05:59:48.529Z,26.20
2022-09-21T06:02:51.996Z,26.50
2022-09-21T06:05:26.866Z,26.80
2022-09-21T06:08:05.677Z,26.90
2022-09-21T06:10:40.808Z,27.00
2022-09-21T06:13:15.303Z,27.00
2022-09-21T06:15:51.160Z,26.90
2022-09-21T06:18:50.710Z,26.90
2022-09-21T06:21:25.617Z,26.50
2022-09-21T06:24:00.734Z,26.30
2022-09-21T06:26:38.465Z,26.50
2022-09-21T06:29:13.418Z,26.50
2022-09-21T06:31:48.024Z,26.50
2022-09-21T06:34:24.549Z,26.40
2022-09-21T06:36:59.606Z,26.60
2022-09-21T06:39:34.609Z,26.60
2022-09-21T06:42:09.831Z,26.50
2022-09-21T06:44:54.406Z,26.70
2022-09-21T06:47:28.548Z,26.70
2022-09-21T06:50:04.966Z,26.50
2022-09-21T06:52:41.782Z,26.50
2022-09-21T06:55:16.428Z,26.60
2022-09-21T06:57:53.265Z,26.80
2022-09-21T07:00:39.633Z,26.90
2022-09-21T07:03:16.810Z,26.90
2022-09-21T07:05:57.592Z,26.90
2022-09-21T07:11:41.649Z,27.40
2022-09-21T07:14:19.052Z,27.20
2022-09-21T07:16:55.212Z,27.10
2022-09-21T07:19:29.994Z,27.30
2022-09-21T07:22:10.369Z,27.40
2022-09-21T07:24:57.699Z,26.90
2022-09-21T07:27:35.181Z,26.80
2022-09-21T07:30:24.892Z,27.10
2022-09-21T07:33:03.691Z,26.70
2022-09-21T07:35:39.071Z,26.60
2022-09-21T07:38:16.595Z,26.70
2022-09-21T07:40:52.271Z,26.70
2022-09-21T07:43:32.056Z,26.70
2022-09-21T07:46:07.175Z,26.70
2022-09-21T07:48:41.955Z,26.70
2022-09-21T07:51:17.944Z,26.80
2022-09-21T07:54:01.249Z,26.80
2022-09-21T07:56:36.600Z,26.90
2022-09-21T07:59:13.001Z,26.80
2022-09-21T08:01:48.580Z,26.90
2022-09-21T08:04:27.828Z,26.80
2022-09-21T08:07:06.404Z,26.80
2022-09-21T08:09:44.916Z,26.80
2022-09-21T08:12:22.288Z,26.70
2022-09-21T08:14:58.438Z,26.70
2022-09-21T08:17:34.145Z,26.50
2022-09-21T08:20:10.656Z,26.30
2022-09-21T08:22:48.721Z,26.30
2022-09-21T08:25:26.639Z,26.30
2022-09-21T08:28:09.675Z,26.20
2022-09-21T08:30:45.714Z,26.10
2022-09-21T08:33:29.433Z,26.40
2022-09-21T08:36:07.284Z,26.30
2022-09-21T08:38:44.646Z,26.20
2022-09-21T08:41:25.314Z,26.30
2022-09-21T08:44:03.531Z,26.20
2022-09-21T08:46:41.635Z,26.30
2022-09-21T08:49:25.002Z,26.40
2022-09-21T08:52:17.062Z,26.10
2022-09-21T08:55:01.919Z,26.00
2022-09-21T08:57:40.191Z,25.90
2022-09-21T09:00:22.243Z,25.70
2022-09-21T09:03:29.885Z,25.80
2022-09-21T09:06:11.514Z,26.20
2022-09-21T09:09:05.260Z,26.40
2022-09-21T09:11:53.863Z,26.40
2022-09-21T09:14:47.283Z,26.50
2022-09-21T09:17:32.168Z,26.60
2022-09-21T09:20:16.018Z,26.50
2022-09-21T09:22:59.119Z,26.50
2022-09-21T09:25:41.342Z,26.40
2022-09-21T09:28:26.233Z,26.30
2022-09-21T09:31:11.689Z,26.20
2022-09-21T09:33:57.348Z,26.20
2022-09-21T09:36:57.860Z,26.20
2022-09-21T09:39:38.094Z,26.20
2022-09-21T09:42:44.727Z,26.20
2022-09-21T09:45:52.538Z,26.20
2022-09-21T09:48:47.856Z,26.20
2022-09-21T09:51:28.254Z,25.90
2022-09-21T09:54:10.152Z,25.70
2022-09-21T09:56:44.525Z,25.70
2022-09-21T09:59:32.439Z,25.60
2022-09-21T10:02:13.502Z,25.60
2022-09-21T10:05:04.881Z,25.70
2022-09-21T10:07:43.792Z,25.60
2022-09-21T10:10:44.665Z,25.60
2022-09-21T10:13:22.897Z,25.30
2022-09-21T10:16:00.476Z,25.30
2022-09-21T10:18:42.611Z,25.30
2022-09-21T10:21:25.946Z,25.30
2022-09-21T10:24:17.091Z,25.10
2022-09-21T10:26:58.148Z,25.10
2022-09-21T10:29:43.196Z,25.10
2022-09-21T10:32:29.783Z,25.10
2022-09-21T10:35:23.279Z,25.10
2022-09-21T10:42:02.075Z,25.10
2022-09-21T10:44:44.444Z,25.10
2022-09-21T10:47:26.163Z,25.00
2022-09-21T10:50:07.133Z,25.00
2022-09-21T10:52:58.460Z,24.90
2022-09-21T10:55:40.743Z,24.90
2022-09-21T10:58:24.499Z,24.90
2022-09-21T11:01:01.667Z,24.90
2022-09-21T11:03:54.352Z,24.90
2022-09-21T11:06:32.280Z,24.90
2022-09-21T11:09:15.374Z,24.90
2022-09-21T11:11:56.773Z,24.80
2022-09-21T11:15:00.702Z,24.80
2022-09-21T11:31:49.355Z,24.70
2022-09-21T11:35:16.783Z,24.70
2022-09-21T11:51:59.537Z,24.50
2022-09-21T12:09:21.228Z,24.00
2022-09-21T12:15:30.469Z,23.90
2022-09-21T12:18:15.410Z,23.90
2022-09-21T12:21:15.022Z,23.90
2022-09-21T12:24:08.890Z,23.90
2022-09-21T12:26:46.244Z,23.90
2022-09-21T12:29:32.647Z,23.80
2022-09-21T12:32:31.458Z,23.80
2022-09-21T12:42:07.249Z,23.80
2022-09-21T12:45:12.563Z,23.80
2022-09-21T12:48:32.842Z,23.90
2022-09-21T12:51:38.519Z,23.80
2022-09-21T13:00:50.437Z,23.80
2022-09-21T13:04:24.372Z,23.80
2022-09-21T13:07:23.939Z,23.70
2022-09-21T13:10:20.043Z,23.80
2022-09-21T13:13:01.440Z,23.80
2022-09-21T13:15:46.185Z,23.80
2022-09-21T13:18:35.699Z,23.80
2022-09-21T13:21:25.492Z,23.80
2022-09-21T13:24:04.176Z,23.70
2022-09-21T13:26:46.451Z,23.70
2022-09-21T13:29:46.936Z,23.70
2022-09-21T13:32:28.636Z,23.70
2022-09-21T13:35:52.345Z,23.70
2022-09-21T13:38:41.598Z,23.60
2022-09-21T13:41:45.798Z,23.50
2022-09-21T13:44:51.331Z,23.40
2022-09-21T13:48:28.630Z,23.30
2022-09-21T13:51:13.487Z,23.30
2022-09-21T13:53:52.529Z,23.20
2022-09-21T13:56:30.494Z,23.20
2022-09-21T13:59:26.076Z,23.20
2022-09-21T14:02:09.259Z,23.10
2022-09-21T14:04:54.360Z,23.00
2022-09-21T14:07:34.618Z,22.90
2022-09-21T14:10:14.161Z,22.80
2022-09-21T14:12:59.306Z,22.80
2022-09-21T14:15:56.587Z,22.70
2022-09-21T14:18:52.981Z,22.80
2022-09-21T14:21:27.585Z,22.70
2022-09-21T14:24:27.603Z,22.80
2022-09-21T14:27:10.737Z,22.80
2022-09-21T14:29:54.384Z,22.80
2022-09-21T14:32:33.626Z,22.70
2022-09-21T14:35:22.286Z,22.70
2022-09-21T14:37:59.525Z,22.70
2022-09-21T14:40:41.570Z,22.60
2022-09-21T14:43:25.064Z,22.60
2022-09-21T14:46:29.174Z,22.60
2022-09-21T14:49:23.666Z,22.60
2022-09-21T14:52:18.296Z,22.60
2022-09-21T14:55:18.671Z,22.50
2022-09-21T14:58:17.160Z,22.40
2022-09-21T15:00:56.368Z,22.50
2022-09-21T15:04:01.630Z,22.50
2022-09-21T15:07:09.487Z,22.60
2022-09-21T15:10:24.886Z,22.50
2022-09-21T15:13:10.667Z,22.60
2022-09-21T15:15:55.539Z,22.60
2022-09-21T15:18:29.652Z,22.70
2022-09-21T15:21:10.320Z,22.70
2022-09-21T15:23:49.301Z,22.60
2022-09-21T15:26:28.240Z,22.50
2022-09-21T15:29:09.646Z,22.50
2022-09-21T15:31:45.323Z,22.40
2022-09-21T15:34:21.502Z,22.40
2022-09-21T15:36:57.274Z,22.40
2022-09-21T15:39:37.903Z,22.50
2022-09-21T15:42:28.451Z,22.40
2022-09-21T15:45:20.727Z,22.50
2022-09-21T15:47:55.583Z,22.40
2022-09-21T15:50:31.518Z,22.40
2022-09-21T15:53:10.830Z,22.50
2022-09-21T15:55:54.713Z,22.50
2022-09-21T15:58:36.988Z,22.50
2022-09-21T16:01:17.746Z,22.60
2022-09-21T16:03:56.951Z,22.50
2022-09-21T16:06:33.011Z,22.50
2022-09-21T16:09:40.512Z,22.50
2022-09-21T16:12:43.034Z,22.50
2022-09-21T16:15:30.456Z,22.50
2022-09-21T16:18:06.454Z,22.50
2022-09-21T16:20:50.136Z,22.60
2022-09-21T16:23:25.470Z,22.50
2022-09-21T16:26:03.047Z,22.50
2022-09-21T16:29:01.630Z,22.50
2022-09-21T16:31:37.423Z,22.50
2022-09-21T16:34:30.387Z,22.40
2022-09-21T16:37:04.856Z,22.40
2022-09-21T16:39:41.103Z,22.40
2022-09-21T16:42:14.372Z,22.40
2022-09-21T16:44:50.674Z,22.40
2022-09-21T16:47:26.810Z,22.30
2022-09-21T16:50:03.125Z,22.30
2022-09-21T16:52:37.653Z,22.20
2022-09-21T16:55:13.642Z,22.10
2022-09-21T16:57:50.573Z,22.10
2022-09-21T17:00:26.387Z,22.20
2022-09-21T17:03:00.356Z,22.20
2022-09-21T17:05:34.957Z,22.20
2022-09-21T17:08:10.429Z,22.10
2022-09-21T17:10:47.324Z,22.00
2022-09-21T17:13:23.868Z,21.90
2022-09-21T17:16:01.800Z,21.90
2022-09-21T17:18:37.422Z,21.90
2022-09-21T17:21:34.560Z,22.00
2022-09-21T17:24:09.881Z,22.00
2022-09-21T17:26:44.705Z,22.00
2022-09-21T17:29:28.957Z,21.90
2022-09-21T17:32:15.970Z,21.90
2022-09-21T17:34:54.523Z,21.80
2022-09-21T17:37:30.693Z,21.80
2022-09-21T17:40:10.505Z,21.80
2022-09-21T17:42:49.862Z,21.80
2022-09-21T17:45:33.392Z,21.80
2022-09-21T17:48:22.023Z,21.80
2022-09-21T17:51:02.398Z,21.70
2022-09-21T17:53:38.905Z,21.70
2022-09-21T17:56:37.839Z,21.70
2022-09-21T17:59:20.521Z,21.80
2022-09-21T18:01:56.766Z,21.80
2022-09-21T18:04:37.174Z,21.80
2022-09-21T18:07:13.379Z,21.70
2022-09-21T18:09:49.547Z,21.70
2022-09-21T18:12:58.688Z,21.80
2022-09-21T18:15:39.790Z,21.80
2022-09-21T18:18:23.035Z,21.90
2022-09-21T18:21:07.058Z,21.90
2022-09-21T18:23:50.695Z,21.90
2022-09-21T18:26:25.681Z,21.80
2022-09-21T18:29:17.191Z,21.70
2022-09-21T18:32:09.661Z,21.60
2022-09-21T18:35:12.168Z,21.40
2022-09-21T18:38:13.597Z,21.50
2022-09-21T18:41:09.619Z,21.50
2022-09-21T18:44:04.472Z,21.40
2022-09-21T18:46:55.063Z,21.40
2022-09-21T18:49:54.265Z,21.40
2022-09-21T18:52:41.569Z,21.30
2022-09-21T18:55:30.168Z,21.30
2022-09-21T18:58:06.836Z,21.30
2022-09-21T19:00:42.298Z,21.30
2022-09-21T19:03:29.596Z,21.30
2022-09-21T19:06:37.467Z,21.30
2022-09-21T19:09:28.150Z,21.30
2022-09-21T19:12:14.339Z,21.30
2022-09-21T19:15:10.161Z,21.30
2022-09-21T19:18:05.631Z,21.30
2022-09-21T19:21:03.576Z,21.30
2022-09-21T19:23:52.541Z,21.30
2022-09-21T19:26:37.661Z,21.40
2022-09-21T19:29:46.658Z,21.30
2022-09-21T19:32:38.537Z,21.40
2022-09-21T19:35:31.574Z,21.30
2022-09-21T19:38:10.004Z,21.30
2022-09-21T19:40:44.773Z,21.30
2022-09-21T19:43:32.739Z,21.30
2022-09-21T19:46:22.103Z,21.30
2022-09-21T19:49:12.177Z,21.30
2022-09-21T19:51:58.059Z,21.30
2022-09-21T19:54:49.644Z,21.30
2022-09-21T19:57:40.210Z,21.30
2022-09-21T20:00:18.296Z,21.40
2022-09-21T20:03:07.553Z,21.30
2022-09-21T20:05:55.529Z,21.30
2022-09-21T20:08:36.300Z,21.20
2022-09-21T20:11:23.219Z,21.10
2022-09-21T20:14:17.893Z,21.00
2022-09-21T20:17:00.335Z,21.10
2022-09-21T20:19:48.709Z,21.00
2022-09-21T20:22:47.228Z,21.10
2022-09-21T20:25:31.360Z,21.10
2022-09-21T20:28:10.045Z,21.10
2022-09-21T20:30:49.155Z,21.10
2022-09-21T20:33:41.189Z,21.20
2022-09-21T20:39:13.813Z,21.30
2022-09-21T20:42:03.147Z,21.30
2022-09-21T20:44:47.621Z,21.30
2022-09-21T20:47:32.209Z,21.30
2022-09-21T20:50:11.196Z,21.30
2022-09-21T20:52:51.751Z,21.30
2022-09-21T20:55:31.355Z,21.30
2022-09-21T20:58:07.827Z,21.30
2022-09-21T21:00:42.589Z,21.30
2022-09-21T21:03:16.953Z,21.20
2022-09-21T21:05:59.239Z,21.20
2022-09-21T21:08:34.936Z,21.20
2022-09-21T21:11:13.175Z,21.20
2022-09-21T21:13:50.117Z,21.30
2022-09-21T21:16:25.152Z,21.30
2022-09-21T21:19:00.984Z,21.20
2022-09-21T21:21:35.887Z,21.20
2022-09-21T21:24:25.790Z,21.20
2022-09-21T21:27:03.453Z,21.20
2022-09-21T21:29:39.329Z,21.30
2022-09-21T21:32:14.946Z,21.30
2022-09-21T21:34:54.386Z,21.30
2022-09-21T21:37:30.800Z,21.30
2022-09-21T21:40:04.827Z,21.30
2022-09-21T21:42:41.030Z,21.30
2022-09-21T21:45:18.351Z,21.20
2022-09-21T21:47:52.039Z,21.20
2022-09-21T21:50:25.980Z,21.10
2022-09-21T21:53:02.658Z,21.20
2022-09-21T21:55:38.535Z,21.10
2022-09-21T21:58:15.490Z,21.10
2022-09-21T22:00:53.512Z,21.20
2022-09-21T22:03:27.540Z,21.20
2022-09-21T22:06:01.506Z,21.10
2022-09-21T22:08:36.198Z,21.20
2022-09-21T22:11:12.548Z,21.20
2022-09-21T22:13:50.869Z,21.30
2022-09-21T22:16:29.283Z,21.10
2022-09-21T22:19:08.400Z,21.10
2022-09-21T22:21:50.375Z,21.10
2022-09-21T22:24:28.417Z,21.00
2022-09-21T22:27:02.225Z,21.00
2022-09-21T22:29:43.402Z,21.10
2022-09-21T22:32:16.942Z,21.20
2022-09-21T22:34:53.607Z,21.20
2022-09-21T22:37:26.805Z,21.20
2022-09-21T22:40:01.172Z,21.30
2022-09-21T22:42:37.939Z,21.30
2022-09-21T22:45:17.672Z,21.20
2022-09-21T22:47:52.561Z,21.20
2022-09-21T22:50:28.218Z,21.20
2022-09-21T22:53:02.600Z,21.20
2022-09-21T22:55:36.923Z,21.30
2022-09-21T22:58:13.733Z,21.30
2022-09-21T23:00:55.009Z,21.30
2022-09-21T23:03:31.995Z,21.30
2022-09-21T23:06:08.212Z,21.40
2022-09-21T23:08:45.946Z,21.30
2022-09-21T23:11:28.144Z,21.30
2022-09-21T23:14:02.406Z,21.20
2022-09-21T23:16:38.676Z,21.20
2022-09-21T23:19:17.082Z,21.30
2022-09-21T23:21:54.277Z,21.30
2022-09-21T23:24:30.420Z,21.30
2022-09-21T23:27:04.942Z,21.40
2022-09-21T23:29:38.617Z,21.40
2022-09-21T23:32:30.439Z,21.50
2022-09-21T23:35:28.560Z,21.40
2022-09-21T23:51:36.975Z,21.20
2022-09-21T23:54:30.142Z,21.10
